createdAt,value
2023-07-06T00:00:30.093Z,15.67
2023-07-06T00:01:30.179Z,15.67
2023-07-06T00:02:30.218Z,15.62
2023-07-06T00:03:30.230Z,15.59
2023-07-06T00:04:30.248Z,15.58
2023-07-06T00:05:30.225Z,15.64
2023-07-06T00:06:30.227Z,15.65
2023-07-06T00:07:30.237Z,15.63
2023-07-06T00:08:30.303Z,15.62
2023-07-06T00:09:30.288Z,15.61
2023-07-06T00:10:30.276Z,15.58
2023-07-06T00:11:30.297Z,15.60
2023-07-06T00:12:30.290Z,15.65
2023-07-06T00:13:30.364Z,15.63
2023-07-06T00:14:30.309Z,15.62
2023-07-06T00:15:30.318Z,15.52
2023-07-06T00:16:30.377Z,15.62
2023-07-06T00:17:30.418Z,15.65
2023-07-06T00:18:30.496Z,15.68
2023-07-06T00:19:30.552Z,15.67
2023-07-06T00:20:30.628Z,15.72
2023-07-06T00:21:30.602Z,15.76
2023-07-06T00:22:30.652Z,15.68
2023-07-06T00:23:30.735Z,15.67
2023-07-06T00:24:30.762Z,15.63
2023-07-06T00:25:30.844Z,15.44
2023-07-06T00:26:30.892Z,15.38
2023-07-06T00:27:30.948Z,15.34
2023-07-06T00:28:31.046Z,15.33
2023-07-06T00:29:31.080Z,15.32
2023-07-06T00:30:31.149Z,15.37
2023-07-06T00:31:31.240Z,15.27
2023-07-06T00:32:31.290Z,15.20
2023-07-06T00:33:31.262Z,15.26
2023-07-06T00:34:31.244Z,15.25
2023-07-06T00:35:31.278Z,15.21
2023-07-06T00:36:31.279Z,15.20
2023-07-06T00:37:31.287Z,15.11
2023-07-06T00:38:31.278Z,15.13
2023-07-06T00:39:31.277Z,14.94
2023-07-06T00:40:31.315Z,14.90
2023-07-06T00:41:31.311Z,14.92
2023-07-06T00:42:31.308Z,14.89
2023-07-06T00:43:31.329Z,14.92
2023-07-06T00:44:31.313Z,14.96
2023-07-06T00:45:31.337Z,15.00
2023-07-06T00:46:31.645Z,15.04
2023-07-06T00:47:31.394Z,15.01
2023-07-06T00:48:31.391Z,14.99
2023-07-06T00:49:31.362Z,14.95
2023-07-06T00:50:31.387Z,14.90
2023-07-06T00:51:31.393Z,14.87
2023-07-06T00:52:31.443Z,14.82
2023-07-06T00:53:31.463Z,14.79
2023-07-06T00:54:31.508Z,14.70
2023-07-06T00:55:31.587Z,14.70
2023-07-06T00:56:31.645Z,14.71
2023-07-06T00:57:31.718Z,14.77
2023-07-06T00:58:31.763Z,14.72
2023-07-06T00:59:31.783Z,14.71
2023-07-06T01:00:31.946Z,14.74
2023-07-06T01:01:31.985Z,14.76
2023-07-06T01:02:32.112Z,14.83
2023-07-06T01:03:32.236Z,14.75
2023-07-06T01:04:32.160Z,14.68
2023-07-06T01:05:32.280Z,14.58
2023-07-06T01:06:32.269Z,14.50
2023-07-06T01:07:32.305Z,14.50
2023-07-06T01:08:32.326Z,14.45
2023-07-06T01:09:32.328Z,14.54
2023-07-06T01:10:32.416Z,14.62
2023-07-06T01:11:32.363Z,14.72
2023-07-06T01:12:32.372Z,14.79
2023-07-06T01:13:32.404Z,14.77
2023-07-06T01:14:32.350Z,14.88
2023-07-06T01:15:32.431Z,14.76
2023-07-06T01:16:32.522Z,14.81
2023-07-06T01:17:32.425Z,14.84
2023-07-06T01:18:32.392Z,14.71
2023-07-06T01:19:32.398Z,14.72
2023-07-06T01:20:32.390Z,14.71
2023-07-06T01:21:32.400Z,14.66
2023-07-06T01:22:32.398Z,14.64
2023-07-06T01:23:32.433Z,14.61
2023-07-06T01:24:32.478Z,14.59
2023-07-06T01:25:32.528Z,14.54
2023-07-06T01:26:32.562Z,14.49
2023-07-06T01:27:32.589Z,14.53
2023-07-06T01:28:32.649Z,14.51
2023-07-06T01:29:32.707Z,14.45
2023-07-06T01:30:32.721Z,14.42
2023-07-06T01:31:32.849Z,14.46
2023-07-06T01:32:32.892Z,14.42
2023-07-06T01:33:32.924Z,14.46
2023-07-06T01:34:32.977Z,14.40
2023-07-06T01:35:33.044Z,14.41
2023-07-06T01:36:33.109Z,14.49
2023-07-06T01:37:33.204Z,14.45
2023-07-06T01:38:33.266Z,14.44
2023-07-06T01:39:33.312Z,14.50
2023-07-06T01:40:33.385Z,14.56
2023-07-06T01:41:33.465Z,14.56
2023-07-06T01:42:33.542Z,14.65
2023-07-06T01:43:33.521Z,14.65
2023-07-06T01:44:33.593Z,14.69
2023-07-06T01:45:33.600Z,14.69
2023-07-06T01:46:33.607Z,14.74
2023-07-06T01:47:33.652Z,14.70
2023-07-06T01:48:33.697Z,14.72
2023-07-06T01:49:33.661Z,14.79
2023-07-06T01:50:33.682Z,14.77
2023-07-06T01:51:33.708Z,14.74
2023-07-06T01:52:33.723Z,14.75
2023-07-06T01:53:33.740Z,14.84
2023-07-06T01:54:33.714Z,14.83
2023-07-06T01:55:33.735Z,14.66
2023-07-06T01:56:33.740Z,14.69
2023-07-06T01:57:43.250Z,14.77
2023-07-06T01:58:34.802Z,14.77
2023-07-06T01:59:33.804Z,14.72
2023-07-06T02:00:33.930Z,14.69
2023-07-06T02:01:33.828Z,14.74
2023-07-06T02:02:33.979Z,14.73
2023-07-06T02:03:33.881Z,14.79
2023-07-06T02:04:33.948Z,14.75
2023-07-06T02:05:33.869Z,14.78
2023-07-06T02:06:33.884Z,14.75
2023-07-06T02:07:33.872Z,14.70
2023-07-06T02:08:33.900Z,14.76
2023-07-06T02:09:33.929Z,14.76
2023-07-06T02:10:33.902Z,14.79
2023-07-06T02:11:33.961Z,14.86
2023-07-06T02:12:34.048Z,14.86
2023-07-06T02:13:34.166Z,14.85
2023-07-06T02:14:34.193Z,14.83
2023-07-06T02:15:34.209Z,14.78
2023-07-06T02:16:34.321Z,14.75
2023-07-06T02:17:34.320Z,14.77
2023-07-06T02:18:34.327Z,14.80
2023-07-06T02:19:34.388Z,14.79
2023-07-06T02:20:34.402Z,14.86
2023-07-06T02:21:34.434Z,14.87
2023-07-06T02:22:34.470Z,14.88
2023-07-06T02:23:34.607Z,14.92
2023-07-06T02:24:34.707Z,14.96
2023-07-06T02:25:34.754Z,15.01
2023-07-06T02:26:34.816Z,15.02
2023-07-06T02:27:34.852Z,15.05
2023-07-06T02:28:34.904Z,15.00
2023-07-06T02:29:34.916Z,15.03
2023-07-06T02:30:35.083Z,15.05
2023-07-06T02:31:35.044Z,15.14
2023-07-06T02:32:35.234Z,15.20
2023-07-06T02:33:35.164Z,15.22
2023-07-06T02:34:35.171Z,15.26
2023-07-06T02:35:35.195Z,15.27
2023-07-06T02:36:35.217Z,15.28
2023-07-06T02:37:35.232Z,15.36
2023-07-06T02:38:35.521Z,15.41
2023-07-06T02:39:35.272Z,15.41
2023-07-06T02:40:35.307Z,15.41
2023-07-06T02:41:35.347Z,15.41
2023-07-06T02:42:35.486Z,15.41
2023-07-06T02:43:35.486Z,15.49
2023-07-06T02:44:35.524Z,15.53
2023-07-06T02:45:35.627Z,15.55
2023-07-06T02:46:35.651Z,15.57
2023-07-06T02:47:35.696Z,15.56
2023-07-06T02:48:35.735Z,15.56
2023-07-06T02:49:35.803Z,15.55
2023-07-06T02:50:35.853Z,15.58
2023-07-06T02:51:35.904Z,15.59
2023-07-06T02:52:35.972Z,15.59
2023-07-06T02:53:36.020Z,15.57
2023-07-06T02:54:36.049Z,15.56
2023-07-06T02:55:36.022Z,15.54
2023-07-06T02:56:36.030Z,15.51
2023-07-06T02:57:36.059Z,15.48
2023-07-06T02:58:36.095Z,15.43
2023-07-06T02:59:36.194Z,15.38
2023-07-06T03:00:36.217Z,15.34
2023-07-06T03:01:36.350Z,15.19
2023-07-06T03:02:36.372Z,15.12
2023-07-06T03:03:36.390Z,15.09
2023-07-06T03:04:36.451Z,15.04
2023-07-06T03:05:36.479Z,15.07
2023-07-06T03:06:36.425Z,15.10
2023-07-06T03:07:36.398Z,15.06
2023-07-06T03:08:36.424Z,15.06
2023-07-06T03:09:36.432Z,15.07
2023-07-06T03:10:36.428Z,15.02
2023-07-06T03:11:36.425Z,15.02
2023-07-06T03:12:36.429Z,15.03
2023-07-06T03:13:36.484Z,15.00
2023-07-06T03:14:36.458Z,14.95
2023-07-06T03:15:36.453Z,14.97
2023-07-06T03:16:36.549Z,14.95
2023-07-06T03:17:36.611Z,14.94
2023-07-06T03:18:36.626Z,14.89
2023-07-06T03:19:36.666Z,14.83
2023-07-06T03:20:36.716Z,14.83
2023-07-06T03:21:36.740Z,14.78
2023-07-06T03:22:36.766Z,14.73
2023-07-06T03:23:36.809Z,14.71
2023-07-06T03:24:36.905Z,14.72
2023-07-06T03:25:36.959Z,14.75
2023-07-06T03:26:37.040Z,14.75
2023-07-06T03:27:36.996Z,14.67
2023-07-06T03:28:37.034Z,14.69
2023-07-06T03:29:37.118Z,14.73
2023-07-06T03:30:37.094Z,14.76
2023-07-06T03:31:37.239Z,14.70
2023-07-06T03:32:37.288Z,14.75
2023-07-06T03:33:37.302Z,14.74
2023-07-06T03:34:37.351Z,14.70
2023-07-06T03:35:37.390Z,14.68
2023-07-06T03:36:37.413Z,14.68
2023-07-06T03:37:37.475Z,14.71
2023-07-06T03:38:37.517Z,14.74
2023-07-06T03:39:37.604Z,14.73
2023-07-06T03:40:37.624Z,14.75
2023-07-06T03:41:37.628Z,14.80
2023-07-06T03:42:37.702Z,14.83
2023-07-06T03:43:37.774Z,14.84
2023-07-06T03:44:37.802Z,14.85
2023-07-06T03:45:37.802Z,14.91
2023-07-06T03:46:38.016Z,14.99
2023-07-06T03:47:37.865Z,15.07
2023-07-06T03:48:37.791Z,15.05
2023-07-06T03:49:37.784Z,15.07
2023-07-06T03:50:37.812Z,15.14
2023-07-06T03:51:37.816Z,15.21
2023-07-06T03:52:37.785Z,15.22
2023-07-06T03:53:37.782Z,15.21
2023-07-06T03:54:37.796Z,15.21
2023-07-06T03:55:37.791Z,15.23
2023-07-06T03:56:37.802Z,15.26
2023-07-06T03:57:42.298Z,15.29
2023-07-06T03:58:38.803Z,15.31
2023-07-06T03:59:37.790Z,15.35
2023-07-06T04:00:37.821Z,15.41
2023-07-06T04:01:37.965Z,15.45
2023-07-06T04:02:37.850Z,15.46
2023-07-06T04:03:37.837Z,15.44
2023-07-06T04:04:37.807Z,15.40
2023-07-06T04:05:37.979Z,15.40
2023-07-06T04:06:37.798Z,15.32
2023-07-06T04:07:37.798Z,15.31
2023-07-06T04:08:37.788Z,15.25
2023-07-06T04:09:37.813Z,15.22
2023-07-06T04:10:37.804Z,15.26
2023-07-06T04:11:37.788Z,15.24
2023-07-06T04:12:37.856Z,15.23
2023-07-06T04:13:37.959Z,15.30
2023-07-06T04:14:37.866Z,15.37
2023-07-06T04:15:37.860Z,15.34
2023-07-06T04:16:37.945Z,15.33
2023-07-06T04:17:37.918Z,15.34
2023-07-06T04:18:37.878Z,15.37
2023-07-06T04:19:37.889Z,15.37
2023-07-06T04:20:37.901Z,15.36
2023-07-06T04:21:37.900Z,15.27
2023-07-06T04:22:37.896Z,15.19
2023-07-06T04:23:37.910Z,15.26
2023-07-06T04:24:37.928Z,15.25
2023-07-06T04:25:37.898Z,15.23
2023-07-06T04:26:37.902Z,15.27
2023-07-06T04:27:37.902Z,15.38
2023-07-06T04:28:37.919Z,15.34
2023-07-06T04:29:37.935Z,15.39
2023-07-06T04:30:37.937Z,15.42
2023-07-06T04:31:38.088Z,15.44
2023-07-06T04:32:37.989Z,15.45
2023-07-06T04:33:37.980Z,15.40
2023-07-06T04:34:38.062Z,15.23
2023-07-06T04:35:40.319Z,15.15
2023-07-06T04:36:38.239Z,15.11
2023-07-06T04:37:38.275Z,15.15
2023-07-06T04:38:38.343Z,15.21
2023-07-06T04:39:38.396Z,15.27
2023-07-06T04:40:38.432Z,15.32
2023-07-06T04:41:38.579Z,15.34
2023-07-06T04:42:38.521Z,15.39
2023-07-06T04:43:38.579Z,15.46
2023-07-06T04:44:38.655Z,15.56
2023-07-06T04:45:38.667Z,15.69
2023-07-06T04:46:38.763Z,15.78
2023-07-06T04:47:38.787Z,15.88
2023-07-06T04:48:38.800Z,15.96
2023-07-06T04:49:38.861Z,16.00
2023-07-06T04:50:39.076Z,16.00
2023-07-06T04:51:38.928Z,16.03
2023-07-06T04:52:38.922Z,16.05
2023-07-06T04:53:38.985Z,16.05
2023-07-06T04:54:39.043Z,16.08
2023-07-06T04:55:39.123Z,16.13
2023-07-06T04:56:39.137Z,16.10
2023-07-06T04:57:39.182Z,16.02
2023-07-06T04:58:39.230Z,16.02
2023-07-06T04:59:39.288Z,15.97
2023-07-06T05:00:39.267Z,16.02
2023-07-06T05:01:39.303Z,16.06
2023-07-06T05:02:39.346Z,16.06
2023-07-06T05:03:39.406Z,16.10
2023-07-06T05:04:39.428Z,16.08
2023-07-06T05:05:39.480Z,16.09
2023-07-06T05:06:39.481Z,16.12
2023-07-06T05:07:39.503Z,16.20
2023-07-06T05:08:39.489Z,16.28
2023-07-06T05:09:39.490Z,16.32
2023-07-06T05:10:39.559Z,16.43
2023-07-06T05:11:39.423Z,16.48
2023-07-06T05:12:39.404Z,16.48
2023-07-06T05:13:39.430Z,16.50
2023-07-06T05:14:39.383Z,16.50
2023-07-06T05:15:39.405Z,16.47
2023-07-06T05:16:39.417Z,16.60
2023-07-06T05:17:39.376Z,16.46
2023-07-06T05:18:39.347Z,16.59
2023-07-06T05:19:39.348Z,16.60
2023-07-06T05:20:39.425Z,16.57
2023-07-06T05:21:39.332Z,16.59
2023-07-06T05:22:39.326Z,16.60
2023-07-06T05:23:39.319Z,16.61
2023-07-06T05:24:39.367Z,16.72
2023-07-06T05:25:39.323Z,16.72
2023-07-06T05:26:39.907Z,16.81
2023-07-06T05:27:39.427Z,16.84
2023-07-06T05:28:39.364Z,16.86
2023-07-06T05:29:39.616Z,16.94
2023-07-06T05:30:39.345Z,16.85
2023-07-06T05:31:39.326Z,16.90
2023-07-06T05:32:39.334Z,16.99
2023-07-06T05:33:39.296Z,17.01
2023-07-06T05:34:39.516Z,17.01
2023-07-06T05:35:39.268Z,16.94
2023-07-06T05:36:39.386Z,16.90
2023-07-06T05:37:39.288Z,16.88
2023-07-06T05:38:39.268Z,16.80
2023-07-06T05:39:39.231Z,16.77
2023-07-06T05:40:39.186Z,16.74
2023-07-06T05:41:39.202Z,16.80
2023-07-06T05:42:39.934Z,16.88
2023-07-06T05:43:39.176Z,16.94
2023-07-06T05:44:39.436Z,17.00
2023-07-06T05:45:39.155Z,17.08
2023-07-06T05:46:39.166Z,17.17
2023-07-06T05:47:39.171Z,17.26
2023-07-06T05:48:39.159Z,17.33
2023-07-06T05:49:39.215Z,17.36
2023-07-06T05:50:39.238Z,17.38
2023-07-06T05:51:39.264Z,17.39
2023-07-06T05:52:39.324Z,17.51
2023-07-06T05:53:39.342Z,17.52
2023-07-06T05:54:39.372Z,17.48
2023-07-06T05:55:39.403Z,17.57
2023-07-06T05:56:39.443Z,17.64
2023-07-06T05:57:39.475Z,17.76
2023-07-06T05:58:39.559Z,17.74
2023-07-06T05:59:39.551Z,17.72
2023-07-06T06:00:39.547Z,17.70
2023-07-06T06:01:39.643Z,17.70
2023-07-06T06:02:39.703Z,17.71
2023-07-06T06:03:40.474Z,17.75
2023-07-06T06:04:39.915Z,17.74
2023-07-06T06:05:39.696Z,17.64
2023-07-06T06:06:39.690Z,17.83
2023-07-06T06:07:40.449Z,17.93
2023-07-06T06:08:39.638Z,17.97
2023-07-06T06:09:39.604Z,18.07
2023-07-06T06:10:39.642Z,18.11
2023-07-06T06:11:39.564Z,18.09
2023-07-06T06:12:39.581Z,17.99
2023-07-06T06:13:39.569Z,17.95
2023-07-06T06:14:39.531Z,18.01
2023-07-06T06:15:39.511Z,18.13
2023-07-06T06:16:39.492Z,18.14
2023-07-06T06:17:39.548Z,18.13
2023-07-06T06:18:41.216Z,18.12
2023-07-06T06:19:39.410Z,18.10
2023-07-06T06:20:39.380Z,18.13
2023-07-06T06:21:39.378Z,18.14
2023-07-06T06:22:39.379Z,18.15
2023-07-06T06:23:39.312Z,18.18
2023-07-06T06:24:39.279Z,18.18
2023-07-06T06:25:39.274Z,18.24
2023-07-06T06:26:39.214Z,18.31
2023-07-06T06:27:39.208Z,18.32
2023-07-06T06:28:39.174Z,18.36
2023-07-06T06:29:39.444Z,18.31
2023-07-06T06:30:39.125Z,18.20
2023-07-06T06:31:39.134Z,18.13
2023-07-06T06:32:39.160Z,18.09
2023-07-06T06:33:39.093Z,18.09
2023-07-06T06:34:39.181Z,18.17
2023-07-06T06:35:39.942Z,18.26
2023-07-06T06:36:39.481Z,18.30
2023-07-06T06:37:39.087Z,18.35
2023-07-06T06:38:38.981Z,18.42
2023-07-06T06:39:39.030Z,18.47
2023-07-06T06:40:38.950Z,18.51
2023-07-06T06:41:38.916Z,18.57
2023-07-06T06:42:38.861Z,18.60
2023-07-06T06:43:38.829Z,18.67
2023-07-06T06:44:38.798Z,18.76
2023-07-06T06:45:38.769Z,18.83
2023-07-06T06:46:38.810Z,18.84
2023-07-06T06:47:38.729Z,18.80
2023-07-06T06:48:38.670Z,18.68
2023-07-06T06:49:38.964Z,18.60
2023-07-06T06:50:38.586Z,18.69
2023-07-06T06:51:38.550Z,18.73
2023-07-06T06:52:38.574Z,18.54
2023-07-06T06:53:38.484Z,18.52
2023-07-06T06:54:39.458Z,18.41
2023-07-06T06:55:38.421Z,18.52
2023-07-06T06:56:38.423Z,18.57
2023-07-06T06:57:38.375Z,18.66
2023-07-06T06:58:38.389Z,18.79
2023-07-06T06:59:38.318Z,18.78
2023-07-06T07:00:38.279Z,18.95
2023-07-06T07:01:38.274Z,19.04
2023-07-06T07:02:38.266Z,19.25
2023-07-06T07:03:38.252Z,19.29
2023-07-06T07:04:38.185Z,19.28
2023-07-06T07:05:38.167Z,19.09
2023-07-06T07:06:38.118Z,19.16
2023-07-06T07:07:38.084Z,19.20
2023-07-06T07:08:38.973Z,19.21
2023-07-06T07:09:38.134Z,19.39
2023-07-06T07:10:38.207Z,19.46
2023-07-06T07:11:38.105Z,19.29
2023-07-06T07:12:38.134Z,19.20
2023-07-06T07:13:38.226Z,19.23
2023-07-06T07:14:38.977Z,19.10
2023-07-06T07:15:38.162Z,19.11
2023-07-06T07:16:38.243Z,19.05
2023-07-06T07:17:38.297Z,19.00
2023-07-06T07:18:38.991Z,18.98
2023-07-06T07:19:38.537Z,18.93
2023-07-06T07:20:38.181Z,18.86
2023-07-06T07:21:38.168Z,18.91
2023-07-06T07:22:38.179Z,18.88
2023-07-06T07:23:38.167Z,18.88
2023-07-06T07:24:38.261Z,18.98
2023-07-06T07:25:38.152Z,18.69
2023-07-06T07:26:38.176Z,18.87
2023-07-06T07:27:38.162Z,18.89
2023-07-06T07:28:38.154Z,18.68
2023-07-06T07:29:38.089Z,18.47
2023-07-06T07:30:38.023Z,18.37
2023-07-06T07:31:38.007Z,18.01
2023-07-06T07:32:37.934Z,17.94
2023-07-06T07:33:37.937Z,17.96
2023-07-06T07:34:37.897Z,18.02
2023-07-06T07:35:37.836Z,18.10
2023-07-06T07:36:37.970Z,18.14
2023-07-06T07:37:37.890Z,17.93
2023-07-06T07:38:37.729Z,17.70
2023-07-06T07:39:37.730Z,17.68
2023-07-06T07:40:37.699Z,17.75
2023-07-06T07:41:37.698Z,17.58
2023-07-06T07:42:37.652Z,17.34
2023-07-06T07:43:37.648Z,17.22
2023-07-06T07:44:37.613Z,17.34
2023-07-06T07:45:37.680Z,17.35
2023-07-06T07:46:37.739Z,17.41
2023-07-06T07:47:37.621Z,17.37
2023-07-06T07:48:37.613Z,17.34
2023-07-06T07:49:37.967Z,17.16
2023-07-06T07:50:37.626Z,17.07
2023-07-06T07:51:37.655Z,17.09
2023-07-06T07:52:37.619Z,17.10
2023-07-06T07:53:40.106Z,16.98
2023-07-06T07:54:37.707Z,17.05
2023-07-06T07:55:37.651Z,16.98
2023-07-06T07:56:37.827Z,16.92
2023-07-06T07:57:37.635Z,16.97
2023-07-06T07:58:37.992Z,16.93
2023-07-06T07:59:37.696Z,16.79
2023-07-06T08:00:38.647Z,16.74
2023-07-06T08:01:38.707Z,16.76
2023-07-06T08:02:37.927Z,16.68
2023-07-06T08:03:38.860Z,16.59
2023-07-06T08:04:40.199Z,16.50
2023-07-06T08:05:37.658Z,16.59
2023-07-06T08:06:37.646Z,16.67
2023-07-06T08:07:37.657Z,16.73
2023-07-06T08:08:38.471Z,16.69
2023-07-06T08:09:37.682Z,16.81
2023-07-06T08:10:37.673Z,16.97
2023-07-06T08:11:37.657Z,17.11
2023-07-06T08:12:37.733Z,17.10
2023-07-06T08:13:37.686Z,17.14
2023-07-06T08:14:37.655Z,17.20
2023-07-06T08:15:37.740Z,17.45
2023-07-06T08:16:37.701Z,17.49
2023-07-06T08:17:37.650Z,17.34
2023-07-06T08:18:37.669Z,17.70
2023-07-06T08:19:55.145Z,17.85
2023-07-06T08:21:08.794Z,18.13
2023-07-06T08:22:38.596Z,18.72
2023-07-06T08:23:37.602Z,19.15
2023-07-06T08:24:37.544Z,19.52
2023-07-06T08:25:37.521Z,19.86
2023-07-06T08:26:37.535Z,19.94
2023-07-06T08:27:37.452Z,20.15
2023-07-06T08:28:37.414Z,20.35
2023-07-06T08:29:37.387Z,20.57
2023-07-06T08:30:37.356Z,20.64
2023-07-06T08:31:37.399Z,20.54
2023-07-06T08:32:37.362Z,20.47
2023-07-06T08:33:37.255Z,20.41
2023-07-06T08:34:37.430Z,20.46
2023-07-06T08:35:37.143Z,20.66
2023-07-06T08:36:37.972Z,20.88
2023-07-06T08:37:37.019Z,20.98
2023-07-06T08:38:37.021Z,21.04
2023-07-06T08:39:36.989Z,21.24
2023-07-06T08:40:36.888Z,21.46
2023-07-06T08:41:36.846Z,21.45
2023-07-06T08:42:36.784Z,21.48
2023-07-06T08:43:36.714Z,21.73
2023-07-06T08:44:36.743Z,22.03
2023-07-06T08:45:36.618Z,22.34
2023-07-06T08:46:36.612Z,22.61
2023-07-06T08:47:36.548Z,22.84
2023-07-06T08:48:36.483Z,23.07
2023-07-06T08:49:36.373Z,23.30
2023-07-06T08:50:36.333Z,23.42
2023-07-06T08:51:36.215Z,23.64
2023-07-06T08:52:36.118Z,23.76
2023-07-06T08:53:36.047Z,23.81
2023-07-06T08:54:36.046Z,23.99
2023-07-06T08:55:35.882Z,23.99
2023-07-06T08:56:35.853Z,24.05
2023-07-06T08:57:35.749Z,23.96
2023-07-06T08:58:35.688Z,23.83
2023-07-06T08:59:35.646Z,23.82
2023-07-06T09:00:35.584Z,24.03
2023-07-06T09:01:35.564Z,24.01
2023-07-06T09:02:35.553Z,23.87
2023-07-06T09:03:35.542Z,23.81
2023-07-06T09:04:35.449Z,23.68
2023-07-06T09:05:35.389Z,23.65
2023-07-06T09:06:35.322Z,23.65
2023-07-06T09:07:35.250Z,23.73
2023-07-06T09:08:35.246Z,23.69
2023-07-06T09:09:35.231Z,23.74
2023-07-06T09:10:35.120Z,23.55
2023-07-06T09:11:38.382Z,22.91
2023-07-06T09:12:34.985Z,22.85
2023-07-06T09:13:34.916Z,22.93
2023-07-06T09:14:34.817Z,23.03
2023-07-06T09:15:37.689Z,23.00
2023-07-06T09:16:34.656Z,23.03
2023-07-06T09:17:35.608Z,23.06
2023-07-06T09:18:34.517Z,22.92
2023-07-06T09:19:36.583Z,22.73
2023-07-06T09:20:35.000Z,22.75
2023-07-06T09:21:34.318Z,22.84
2023-07-06T09:22:34.329Z,22.87
2023-07-06T09:23:34.365Z,22.88
2023-07-06T09:24:34.051Z,22.90
2023-07-06T09:25:33.986Z,22.88
2023-07-06T09:26:34.343Z,22.77
2023-07-06T09:27:34.586Z,22.81
2023-07-06T09:28:33.850Z,22.97
2023-07-06T09:29:35.585Z,23.09
2023-07-06T09:30:34.567Z,22.97
2023-07-06T09:31:33.693Z,23.13
2023-07-06T09:32:33.753Z,23.25
2023-07-06T09:33:33.587Z,23.26
2023-07-06T09:34:33.613Z,23.28
2023-07-06T09:35:33.605Z,23.31
2023-07-06T09:36:33.508Z,23.42
2023-07-06T09:37:33.494Z,23.47
2023-07-06T09:38:33.851Z,23.47
2023-07-06T09:39:33.489Z,23.48
2023-07-06T09:40:33.979Z,23.53
2023-07-06T09:41:33.500Z,23.49
2023-07-06T09:42:34.105Z,23.39
2023-07-06T09:43:33.460Z,23.33
2023-07-06T09:44:33.365Z,23.40
2023-07-06T09:45:33.550Z,23.67
2023-07-06T09:46:33.329Z,23.88
2023-07-06T09:47:33.264Z,23.96
2023-07-06T09:48:33.190Z,23.91
2023-07-06T09:49:33.154Z,24.13
2023-07-06T09:50:33.120Z,24.22
2023-07-06T09:51:33.086Z,24.37
2023-07-06T09:52:33.047Z,24.35
2023-07-06T09:53:33.018Z,24.11
2023-07-06T09:54:32.878Z,24.16
2023-07-06T09:55:32.844Z,24.46
2023-07-06T09:56:32.718Z,24.50
2023-07-06T09:57:32.767Z,24.64
2023-07-06T09:58:33.563Z,24.86
2023-07-06T09:59:32.514Z,25.04
2023-07-06T10:00:32.431Z,24.95
2023-07-06T10:01:32.366Z,24.91
2023-07-06T10:02:32.276Z,24.98
2023-07-06T10:03:32.175Z,25.14
2023-07-06T10:04:32.101Z,25.12
2023-07-06T10:05:32.176Z,25.19
2023-07-06T10:06:32.014Z,25.33
2023-07-06T10:07:31.899Z,25.54
2023-07-06T10:08:31.917Z,25.67
2023-07-06T10:09:31.838Z,25.50
2023-07-06T10:10:31.912Z,25.66
2023-07-06T10:11:31.718Z,25.84
2023-07-06T10:12:31.673Z,25.90
2023-07-06T10:13:31.663Z,25.88
2023-07-06T10:14:31.567Z,25.99
2023-07-06T10:15:31.538Z,26.09
2023-07-06T10:16:31.490Z,26.14
2023-07-06T10:17:31.421Z,26.20
2023-07-06T10:18:31.329Z,26.31
2023-07-06T10:19:31.258Z,26.26
2023-07-06T10:20:31.267Z,26.39
2023-07-06T10:21:31.132Z,26.48
2023-07-06T10:22:31.100Z,26.56
2023-07-06T10:23:31.026Z,26.48
2023-07-06T10:24:31.015Z,26.36
2023-07-06T10:25:30.898Z,26.19
2023-07-06T10:26:30.812Z,26.14
2023-07-06T10:27:30.744Z,26.07
2023-07-06T10:28:30.731Z,25.77
2023-07-06T10:29:30.618Z,25.55
2023-07-06T10:30:30.618Z,25.45
2023-07-06T10:31:32.736Z,25.44
2023-07-06T10:32:30.625Z,25.28
2023-07-06T10:33:30.588Z,25.26
2023-07-06T10:34:30.604Z,25.33
2023-07-06T10:35:30.535Z,25.27
2023-07-06T10:36:30.446Z,25.36
2023-07-06T10:38:50.081Z,25.74
2023-07-06T10:39:49.423Z,25.84
2023-07-06T10:40:49.402Z,25.85
2023-07-06T10:41:49.411Z,25.92
2023-07-06T10:42:49.384Z,25.91
2023-07-06T10:43:49.395Z,25.87
2023-07-06T10:44:49.367Z,25.83
2023-07-06T10:45:49.443Z,25.94
2023-07-06T10:46:49.349Z,26.22
2023-07-06T10:47:49.397Z,26.32
2023-07-06T10:48:49.292Z,26.44
2023-07-06T10:49:49.320Z,26.52
2023-07-06T10:50:49.289Z,26.32
2023-07-06T10:51:49.246Z,26.07
2023-07-06T10:52:49.267Z,26.10
2023-07-06T10:53:49.239Z,26.11
2023-07-06T10:54:49.337Z,26.31
2023-07-06T10:55:49.214Z,26.54
2023-07-06T10:56:49.189Z,26.92
2023-07-06T10:57:49.194Z,27.00
2023-07-06T10:58:49.170Z,27.06
2023-07-06T10:59:49.138Z,27.17
2023-07-06T11:00:49.177Z,27.18
2023-07-06T11:01:49.256Z,26.95
2023-07-06T11:02:50.118Z,26.78
2023-07-06T11:03:49.193Z,26.79
2023-07-06T11:04:49.075Z,26.48
2023-07-06T11:05:49.090Z,26.66
2023-07-06T11:06:49.076Z,26.93
2023-07-06T11:07:49.037Z,27.27
2023-07-06T11:08:49.000Z,27.44
2023-07-06T11:09:49.026Z,27.55
2023-07-06T11:10:48.968Z,27.31
2023-07-06T11:11:48.952Z,27.48
2023-07-06T11:12:48.946Z,27.70
2023-07-06T11:13:48.966Z,27.78
2023-07-06T11:14:48.905Z,27.87
2023-07-06T11:15:48.971Z,27.95
2023-07-06T11:16:48.992Z,28.01
2023-07-06T11:17:48.910Z,27.73
2023-07-06T11:18:48.797Z,27.47
2023-07-06T11:19:48.753Z,27.51
2023-07-06T11:20:48.758Z,27.26
2023-07-06T11:21:48.727Z,27.28
2023-07-06T11:22:48.764Z,27.36
2023-07-06T11:23:48.677Z,27.19
2023-07-06T11:24:48.686Z,27.01
2023-07-06T11:25:48.649Z,26.88
2023-07-06T11:26:48.649Z,26.84
2023-07-06T11:27:48.701Z,26.77
2023-07-06T11:28:48.773Z,26.63
2023-07-06T11:29:48.734Z,26.70
2023-07-06T11:30:48.794Z,26.11
2023-07-06T11:31:49.039Z,25.77
2023-07-06T11:32:48.853Z,25.38
2023-07-06T11:33:48.861Z,25.25
2023-07-06T11:34:48.875Z,25.14
2023-07-06T11:35:48.890Z,25.01
2023-07-06T11:36:48.915Z,25.02
2023-07-06T11:37:58.427Z,24.98
2023-07-06T11:38:49.996Z,24.77
2023-07-06T11:39:49.035Z,24.57
2023-07-06T11:40:49.082Z,24.34
2023-07-06T11:41:49.055Z,24.04
2023-07-06T11:42:49.084Z,24.01
2023-07-06T11:43:49.094Z,23.89
2023-07-06T11:44:49.152Z,23.77
2023-07-06T11:45:49.183Z,23.51
2023-07-06T11:46:49.225Z,22.90
2023-07-06T11:47:49.488Z,22.56
2023-07-06T11:48:49.300Z,22.57
2023-07-06T11:49:49.313Z,22.37
2023-07-06T11:50:49.431Z,22.00
2023-07-06T11:51:49.437Z,21.36
2023-07-06T11:52:49.530Z,21.36
2023-07-06T11:53:49.547Z,21.07
2023-07-06T11:54:49.660Z,20.97
2023-07-06T11:55:49.776Z,21.09
2023-07-06T11:56:49.853Z,21.06
2023-07-06T11:57:49.956Z,20.98
2023-07-06T11:58:50.060Z,20.92
2023-07-06T11:59:50.170Z,20.96
2023-07-06T12:00:50.639Z,20.76
2023-07-06T12:01:50.354Z,20.24
2023-07-06T12:02:50.518Z,20.25
2023-07-06T12:03:50.602Z,20.40
2023-07-06T12:04:51.876Z,20.33
2023-07-06T12:05:52.205Z,20.58
2023-07-06T12:06:50.829Z,20.80
2023-07-06T12:07:50.919Z,20.86
2023-07-06T12:08:51.034Z,20.90
2023-07-06T12:09:51.171Z,20.75
2023-07-06T12:10:51.359Z,20.73
2023-07-06T12:11:51.385Z,20.89
2023-07-06T12:12:51.443Z,20.55
2023-07-06T12:13:51.569Z,20.54
2023-07-06T12:14:51.699Z,20.70
2023-07-06T12:15:51.728Z,20.85
2023-07-06T12:16:51.799Z,20.98
2023-07-06T12:17:51.879Z,20.84
2023-07-06T12:18:51.951Z,20.63
2023-07-06T12:19:52.042Z,20.34
2023-07-06T12:20:52.107Z,20.21
2023-07-06T12:21:52.188Z,19.99
2023-07-06T12:22:52.282Z,19.59
2023-07-06T12:23:52.332Z,19.57
2023-07-06T12:24:52.393Z,19.17
2023-07-06T12:25:52.500Z,18.94
2023-07-06T12:26:52.567Z,19.00
2023-07-06T12:27:52.601Z,18.84
2023-07-06T12:28:54.679Z,18.84
2023-07-06T12:29:52.762Z,18.68
2023-07-06T12:30:52.875Z,18.78
2023-07-06T12:31:52.970Z,18.81
2023-07-06T12:32:53.037Z,18.64
2023-07-06T12:33:53.223Z,18.68
2023-07-06T12:34:53.305Z,18.74
2023-07-06T12:35:53.418Z,18.94
2023-07-06T12:36:53.503Z,19.17
2023-07-06T12:37:53.613Z,19.34
2023-07-06T12:38:54.139Z,19.47
2023-07-06T12:39:53.810Z,19.60
2023-07-06T12:40:54.202Z,19.75
2023-07-06T12:41:53.987Z,19.88
2023-07-06T12:42:54.068Z,19.97
2023-07-06T12:43:54.127Z,20.01
2023-07-06T12:44:54.227Z,19.89
2023-07-06T12:45:54.419Z,19.82
2023-07-06T12:46:54.502Z,19.88
2023-07-06T12:47:54.525Z,19.78
2023-07-06T12:48:54.840Z,19.81
2023-07-06T12:49:57.613Z,19.73
2023-07-06T12:50:54.745Z,19.69
2023-07-06T12:51:54.811Z,19.52
2023-07-06T12:52:54.855Z,19.66
2023-07-06T12:53:54.936Z,19.92
2023-07-06T12:54:54.967Z,20.11